Flight Track Log - Related Links

Times and Time Zones

All times are in EDT time to prevent confusion due to time zone crossing. See the SWA896 flight status page for this flight to view local times or setup timezone preferences in your user account.

Time Position Orientation Groundspeed Altitude Reporting Facility
EDT Latitude Longitude Course Direction KTS MPH feet Rate Location/Type
Wed 08:16:40 AM 42.9167 -78.7500 236° Southwest 172 198 2,200  Level Buffalo TRACON
Wed 08:17:28 AM 42.9000 -78.7833 236° Southwest 182 209 3,900 2,339 Climbing Buffalo TRACON
Wed 08:18:38 AM 42.8200 -78.8225 200° South 249 287 6,800 2,677 Climbing Cleveland Center
Wed 08:19:38 AM 42.7517 -78.8556 200° South 254 292 9,700 2,100 Climbing Cleveland Center
Wed 08:20:38 AM 42.6811 -78.8858 198° South 262 302 11,000 1,450 Climbing Cleveland Center
Wed 08:21:38 AM 42.5903 -78.9306 200° South 306 352 12,600 1,800 Climbing Cleveland Center
Wed 08:22:38 AM 42.4928 -78.9753 199° South 348 400 14,600 2,100 Climbing Cleveland Center
Wed 08:23:38 AM 42.3914 -79.0258 200° South 381 438 16,800 2,100 Climbing Cleveland Center
Wed 08:24:38 AM 42.2878 -79.0758 200° South 388 447 18,800 1,950 Climbing Cleveland Center
Wed 08:25:38 AM 42.1950 -79.1511 211° Southwest 381 438 20,700 1,750 Climbing Cleveland Center
Wed 08:26:38 AM 42.1842 -79.2969 264° West 352 405 22,300 1,400 Climbing Cleveland Center
Wed 08:27:38 AM 42.1836 -79.4511 270° West 365 420 23,500 1,250 Climbing Cleveland Center
Wed 08:28:38 AM 42.1808 -79.6053 269° West 394 453 24,800 1,200 Climbing Cleveland Center
Wed 08:29:38 AM 42.1781 -79.7650 269° West 416 479 25,900 1,200 Climbing Cleveland Center
Wed 08:30:38 AM 42.1747 -79.9081 268° West 427 491 27,200 1,350 Climbing Cleveland Center
Wed 08:31:38 AM 42.1672 -80.0622 266° West 426 490 28,600 1,400 Climbing Cleveland Center
Wed 08:32:38 AM 42.1344 -80.2108 253° West 412 474 30,000 1,350 Climbing Cleveland Center
Wed 08:33:38 AM 42.1056 -80.3706 256° West 407 468 31,300 1,200 Climbing Cleveland Center
Wed 08:34:38 AM 42.1081 -80.5244 271° West 407 468 32,400 1,300 Climbing Cleveland Center
Wed 08:35:38 AM 42.1058 -80.6728 269° West 401 461 33,900 800 Climbing Cleveland Center
Wed 08:36:38 AM 42.1036 -80.8125 269° West 394 453 34,000 50 Climbing Cleveland Center
Wed 08:37:38 AM 42.1011 -80.9525 269° West 383 441 34,000 -450 Level Cleveland Center
Wed 08:38:38 AM 42.1006 -81.0925 270° West 383 441 33,100 -1,000 Descending Cleveland Center
Wed 08:39:38 AM 42.1000 -81.2267 270° West 369 425 32,000 -550 Descending Cleveland Center
Wed 08:40:38 AM 42.0969 -81.3667 268° West 367 422 32,000  Level Cleveland Center
Wed 08:41:38 AM 42.0958 -81.5094 269° West 380 437 32,000  Level Cleveland Center
Wed 08:42:38 AM 42.0925 -81.6547 268° West 385 443 32,000  Level Cleveland Center
Wed 08:43:38 AM 42.0889 -81.8003 268° West 390 449 32,000  Level Cleveland Center
Wed 08:44:38 AM 42.0853 -81.9456 268° West 390 449 32,000  Level Cleveland Center
Wed 08:45:38 AM 42.0833 -82.0939 269° West 390 449 32,000  Level Cleveland Center
Wed 08:46:38 AM 42.0775 -82.2225 267° West 390 449 32,000  Level Cleveland Center
Wed 08:47:38 AM 42.0753 -82.3650 269° West 384 442 32,000  Level Cleveland Center
Wed 08:48:38 AM 42.0772 -82.5078 271° West 384 442 32,000  Level Cleveland Center
Wed 08:49:38 AM 42.0683 -82.6558 265° West 384 442 32,000  Level Cleveland Center
Wed 08:50:38 AM 42.0658 -82.7928 269° West 384 442 32,000  Level Cleveland Center
Wed 08:51:38 AM 42.0631 -82.9381 269° West 384 442 32,000  Level Cleveland Center
Wed 08:52:38 AM 42.0578 -83.0778 267° West 384 442 32,000  Level Cleveland Center
Wed 08:53:38 AM 42.0547 -83.2203 268° West 384 442 32,000  Level Cleveland Center
Wed 08:54:38 AM 42.0469 -83.3711 266° West 379 436 32,000  Level Cleveland Center
Wed 08:55:38 AM 42.0436 -83.5050 268° West 368 423 32,000  Level Cleveland Center
Wed 08:56:38 AM 42.0297 -83.6386 262° West 368 423 32,000  Level Cleveland Center
Wed 08:57:38 AM 42.0156 -83.7722 262° West 368 423 32,000  Level Cleveland Center
Wed 08:58:38 AM 42.0033 -83.9086 263° West 368 423 32,000  Level Cleveland Center
Wed 08:59:38 AM 41.9933 -84.0367 264° West 363 418 32,000  Level Cleveland Center
Wed 09:00:38 AM 41.9811 -84.1700 263° West 363 418 32,000  Level Cleveland Center
Wed 09:02:43 AM 41.9572 -84.4425 263° West 359 413 32,000  Level Chicago Center
Wed 09:03:45 AM 41.9444 -84.5700 262° West 350 403 32,000  Level Chicago Center
Wed 09:04:47 AM 41.9319 -84.6981 263° West 348 400 32,000  Level Chicago Center
Wed 09:05:49 AM 41.9186 -84.8261 262° West 348 400 32,000  Level Chicago Center
Wed 09:06:50 AM 41.9067 -84.9536 263° West 347 399 32,000  Level Chicago Center
Wed 09:07:52 AM 41.8939 -85.0803 262° West 346 398 32,000  Level Chicago Center
Wed 09:08:54 AM 41.8778 -85.2336 262° West 349 402 32,000  Level Chicago Center
Wed 09:09:56 AM 41.8653 -85.3639 263° West 357 411 32,000  Level Chicago Center
Wed 09:10:58 AM 41.8525 -85.4919 262° West 353 406 32,000 -145 Level Chicago Center
Wed 09:12:00 AM 41.8403 -85.6192 263° West 350 403 31,700 -585 Descending Chicago Center
Wed 09:13:01 AM 41.8272 -85.7481 262° West 352 405 30,800 -829 Descending Chicago Center
Wed 09:14:03 AM 41.8117 -85.9081 263° West 361 415 30,000 -387 Descending Chicago Center
Wed 09:15:05 AM 41.7983 -86.0389 262° West 358 412 30,000  Level Chicago Center
Wed 09:16:07 AM 41.7856 -86.1692 263° West 356 410 30,000  Level Chicago Center
Wed 09:17:09 AM 41.7769 -86.3036 265° West 361 415 30,000  Level Chicago Center
Wed 09:18:11 AM 41.7733 -86.4383 268° West 363 418 30,000  Level Chicago Center
Wed 09:19:13 AM 41.7672 -86.5708 267° West 359 413 30,000  Level Chicago Center
Wed 09:20:15 AM 41.7617 -86.7222 267° West 359 413 30,000 97 Level Chicago Center
Wed 09:21:17 AM 41.7572 -86.8533 267° West 355 409 30,200 629 Climbing Chicago Center
Wed 09:22:19 AM 41.7519 -86.9850 267° West 355 409 31,300 1,065 Climbing Chicago Center
Wed 09:23:21 AM 41.7439 -87.1456 266° West 361 415 32,400 1,016 Climbing Chicago Center
Wed 09:24:23 AM 41.7381 -87.2792 267° West 362 417 33,400 968 Climbing Chicago Center
Wed 09:25:25 AM 41.7328 -87.4133 267° West 363 418 34,400 960 Climbing Chicago Center
Wed 09:26:28 AM 41.7258 -87.5450 266° West 358 412 35,400 774 Climbing Chicago Center
Wed 09:27:29 AM 41.7203 -87.6739 267° West 353 406 36,000 290 Climbing Chicago Center
Wed 09:28:32 AM 41.7125 -87.8242 266° West 340 391 36,000  Level Chicago Center
Wed 09:29:34 AM 41.7061 -87.9500 266° West 343 395 36,000  Level Chicago Center
Wed 09:30:36 AM 41.7003 -88.0750 266° West 342 394 36,000  Level Chicago Center
Wed 09:31:38 AM 41.6936 -88.2003 266° West 343 395 36,000  Level Chicago Center
Wed 09:32:40 AM 41.6856 -88.3514 266° West 343 395 36,000  Level Chicago Center
Wed 09:33:42 AM 41.6786 -88.4772 266° West 344 396 36,000  Level Chicago Center
Wed 09:34:44 AM 41.6717 -88.6069 266° West 350 403 36,000  Level Chicago Center
Wed 09:35:46 AM 41.6633 -88.7383 265° West 357 411 36,000  Level Chicago Center
Wed 09:36:48 AM 41.6556 -88.8736 266° West 366 421 36,000  Level Chicago Center
Wed 09:37:50 AM 41.6469 -89.0342 266° West 363 418 36,000  Level Chicago Center
Wed 09:38:52 AM 41.6383 -89.1714 265° West 369 425 36,000  Level Chicago Center
Wed 09:39:54 AM 41.6300 -89.3064 265° West 368 423 36,000  Level Chicago Center
Wed 09:40:56 AM 41.6217 -89.4411 265° West 366 421 36,000  Level Chicago Center
Wed 09:41:58 AM 41.6131 -89.5908 266° West 364 419 36,000  Level Chicago Center
Wed 09:43:01 AM 41.6036 -89.7256 265° West 366 421 36,000  Level Chicago Center
Wed 09:44:03 AM 41.5950 -89.8617 265° West 369 425 36,000  Level Chicago Center
Wed 09:45:05 AM 41.5861 -89.9978 265° West 370 426 36,000  Level Chicago Center
Wed 09:46:07 AM 41.5772 -90.1367 265° West 375 432 36,000  Level Chicago Center
Wed 09:47:09 AM 41.5639 -90.3075 264° West 384 442 36,000  Level Chicago Center
Wed 09:48:11 AM 41.5539 -90.4503 265° West 387 445 36,000  Level Chicago Center
Wed 09:49:13 AM 41.5439 -90.5911 265° West 384 442 36,000  Level Chicago Center
Wed 09:50:15 AM 41.5333 -90.7325 264° West 387 445 36,000  Level Chicago Center
Wed 09:51:17 AM 41.5225 -90.8783 264° West 390 449 36,000  Level Chicago Center
Wed 09:52:19 AM 41.5125 -91.0222 265° West 390 449 36,000  Level Chicago Center
Wed 09:53:21 AM 41.4981 -91.1961 264° West 393 452 36,000  Level Chicago Center
Wed 09:54:23 AM 41.4875 -91.3389 264° West 394 453 36,000  Level Chicago Center
Wed 09:55:25 AM 41.4750 -91.4836 263° West 395 455 36,000  Level Chicago Center
Wed 09:56:28 AM 41.4642 -91.6258 264° West 390 449 36,000  Level Chicago Center
Wed 09:57:30 AM 41.4522 -91.7717 264° West 393 452 36,000  Level Chicago Center
Wed 09:58:32 AM 41.4364 -91.9439 263° West 393 452 36,000  Level Chicago Center
Wed 09:59:34 AM 41.4244 -92.0897 264° West 396 456 36,000  Level Chicago Center
Wed 10:00:36 AM 41.4111 -92.2325 263° West 393 452 36,000  Level Chicago Center
Wed 10:01:38 AM 41.3983 -92.3767 263° West 392 451 36,000  Level Chicago Center
Wed 10:02:40 AM 41.3831 -92.5467 263° West 393 452 36,000  Level Chicago Center
Wed 10:03:42 AM 41.3697 -92.6886 263° West 390 449 36,000  Level Chicago Center
Wed 10:04:00 AM 41.3675 -92.7183 264° West 392 451 36,000  Level Minneapolis Center
Wed 10:05:13 AM 41.3542 -92.8592 263° West 389 448 36,000  Level Minneapolis Center
Wed 10:06:16 AM 41.3364 -93.0553 263° West 386 444 36,000  Level Minneapolis Center
Wed 10:07:17 AM 41.3233 -93.1925 263° West 381 438 36,000  Level Minneapolis Center
Wed 10:08:19 AM 41.3092 -93.3308 262° West 380 437 36,000  Level Minneapolis Center
Wed 10:09:21 AM 41.2950 -93.4717 262° West 385 443 36,000  Level Minneapolis Center
Wed 10:10:35 AM 41.2825 -93.6089 263° West 380 437 36,000  Level Minneapolis Center
Wed 10:11:37 AM 41.2625 -93.8064 262° West 387 445 36,000  Level Minneapolis Center
Wed 10:12:39 AM 41.2481 -93.9453 262° West 385 443 36,000  Level Minneapolis Center
Wed 10:13:41 AM 41.2339 -94.0875 263° West 389 448 36,000  Level Minneapolis Center
Wed 10:14:43 AM 41.2181 -94.2264 261° West 389 448 36,000  Level Minneapolis Center
Wed 10:16:47 AM 41.1856 -94.5342 262° West 385 443 36,000  Level Minneapolis Center
Wed 10:17:48 AM 41.1703 -94.6750 262° West 386 444 36,000  Level Minneapolis Center
Wed 10:18:50 AM 41.1556 -94.8164 262° West 387 445 36,000  Level Minneapolis Center
Wed 10:19:52 AM 41.1389 -94.9578 261° West 387 445 36,000  Level Minneapolis Center
Wed 10:20:54 AM 41.1228 -95.0989 261° West 389 448 36,000  Level Minneapolis Center
Wed 10:21:56 AM 41.1081 -95.2400 262° West 387 445 36,000  Level Minneapolis Center
Wed 10:22:58 AM 41.0897 -95.3831 260° West 391 450 36,000  Level Minneapolis Center
Wed 10:24:00 AM 41.0761 -95.4978 261° West 393 452 36,000  Level Minneapolis Center
Wed 10:25:02 AM 41.0539 -95.6969 262° West 390 449 36,000  Level Minneapolis Center
Wed 10:26:04 AM 41.0361 -95.8372 261° West 385 443 36,000  Level Minneapolis Center
Wed 10:27:06 AM 41.0189 -95.9778 261° West 384 442 36,000  Level Minneapolis Center
Wed 10:28:08 AM 41.0025 -96.1178 261° West 383 441 36,000  Level Minneapolis Center
Wed 10:29:10 AM 40.9853 -96.2556 261° West 379 436 36,000  Level Minneapolis Center
Wed 10:30:12 AM 40.9675 -96.3947 260° West 380 437 36,000  Level Minneapolis Center
Wed 10:31:13 AM 40.9542 -96.5050 261° West 379 436 36,000  Level Minneapolis Center
Wed 10:32:16 AM 40.9339 -96.6692 261° West 377 434 36,000  Level Minneapolis Center
Wed 10:33:18 AM 40.9022 -96.8278 255° West 373 429 36,000  Level Minneapolis Center
Wed 10:34:20 AM 40.8631 -96.9542 248° West 372 428 36,000  Level Minneapolis Center
Wed 10:35:22 AM 40.8269 -97.0828 250° West 373 429 36,000  Level Minneapolis Center
Wed 10:36:24 AM 40.7903 -97.2092 249° West 370 426 36,000  Level Minneapolis Center
Wed 10:37:26 AM 40.7536 -97.3378 249° West 373 429 36,000  Level Minneapolis Center
Wed 10:38:28 AM 40.7142 -97.4758 249° West 372 428 36,000  Level Minneapolis Center
Wed 10:39:30 AM 40.6769 -97.6028 249° West 371 427 36,000  Level Minneapolis Center
Wed 10:40:31 AM 40.6467 -97.7044 249° West 371 427 36,000  Level Minneapolis Center
Wed 10:41:34 AM 40.6022 -97.8572 249° West 371 427 36,000  Level Minneapolis Center
Wed 10:42:36 AM 40.5572 -98.0092 249° West 370 426 36,000  Level Minneapolis Center
Wed 10:43:38 AM 40.5197 -98.1358 249° West 370 426 36,000  Level Minneapolis Center
Wed 10:44:40 AM 40.4819 -98.2617 248° West 369 425 36,000  Level Minneapolis Center
Wed 10:45:42 AM 40.4442 -98.3875 249° West 369 425 36,000  Level Minneapolis Center
Wed 10:46:44 AM 40.4064 -98.5136 249° West 370 426 36,000  Level Minneapolis Center
Wed 10:47:46 AM 40.3692 -98.6383 249° West 368 423 36,000  Level Minneapolis Center
Wed 10:48:47 AM 40.3300 -98.7636 248° West 369 425 36,000  Level Minneapolis Center
Wed 10:49:49 AM 40.2919 -98.8875 248° West 367 422 36,000  Level Minneapolis Center
Wed 10:50:17 AM 40.2686 -98.9642 248° West 367 422 36,000  Level Denver Center
Wed 10:51:19 AM 40.2314 -99.0869 248° West 363 418 36,000  Level Denver Center
Wed 10:52:21 AM 40.1936 -99.2122 248° West 370 426 36,000  Level Denver Center
Wed 10:53:23 AM 40.1547 -99.3347 247° West 365 420 36,000  Level Denver Center
Wed 10:54:25 AM 40.1153 -99.4594 248° West 369 425 36,000  Level Denver Center
Wed 10:55:27 AM 40.0767 -99.5831 248° West 369 425 36,000  Level Denver Center
Wed 10:56:29 AM 40.0308 -99.7297 248° West 363 418 36,000  Level Denver Center
Wed 10:57:31 AM 39.9922 -99.8486 247° West 357 411 36,000  Level Denver Center
Wed 10:58:34 AM 39.9553 -99.9686 248° West 356 410 36,000  Level Denver Center
Wed 10:59:36 AM 39.9167 -100.0889 247° West 357 411 36,000  Level Denver Center
Wed 11:00:38 AM 39.8786 -100.2064 247° West 354 407 36,000  Level Denver Center
Wed 11:01:40 AM 39.8344 -100.3444 247° West 355 409 36,000  Level Denver Center
Wed 11:02:42 AM 39.7981 -100.4553 247° West 351 404 36,000  Level Denver Center
Wed 11:03:44 AM 39.7611 -100.5681 247° West 353 406 36,000  Level Denver Center
Wed 11:04:46 AM 39.7186 -100.6969 247° West 348 400 36,000  Level Denver Center
Wed 11:05:48 AM 39.6831 -100.8075 247° West 346 398 36,000  Level Denver Center
Wed 11:06:50 AM 39.6406 -100.9344 247° West 344 396 36,000  Level Denver Center
Wed 11:07:52 AM 39.6044 -101.0425 247° West 342 394 36,000  Level Denver Center
Wed 11:08:54 AM 39.5628 -101.1686 247° West 341 392 36,000  Level Denver Center
Wed 11:09:56 AM 39.5269 -101.2792 247° West 345 397 36,000  Level Denver Center
Wed 11:10:58 AM 39.4847 -101.4064 247° West 346 398 36,000  Level Denver Center
Wed 11:12:00 AM 39.4481 -101.5144 246° West 345 397 36,000  Level Denver Center
Wed 11:13:02 AM 39.4058 -101.6397 246° West 341 392 36,000  Level Denver Center
Wed 11:14:04 AM 39.3792 -101.7486 252° West 335 386 36,000  Level Denver Center
Wed 11:15:06 AM 39.3592 -101.8775 259° West 328 377 36,000  Level Denver Center
Wed 11:16:08 AM 39.3425 -101.9881 259° West 328 377 36,000  Level Denver Center
Wed 11:17:10 AM 39.3253 -102.1022 259° West 329 379 36,000  Level Denver Center
Wed 11:18:13 AM 39.3053 -102.2292 259° West 325 374 36,000  Level Denver Center
Wed 11:19:15 AM 39.2889 -102.3378 259° West 323 372 36,000  Level Denver Center
Wed 11:20:17 AM 39.2683 -102.4628 258° West 320 368 36,000  Level Denver Center
Wed 11:21:19 AM 39.2519 -102.5711 259° West 319 367 36,000  Level Denver Center
Wed 11:22:21 AM 39.2317 -102.6956 258° West 319 367 36,000  Level Denver Center
Wed 11:23:23 AM 39.2164 -102.8014 259° West 313 360 36,000  Level Denver Center
Wed 11:24:25 AM 39.1978 -102.9117 258° West 311 358 36,000  Level Denver Center
Wed 11:25:27 AM 39.1806 -103.0203 258° West 308 354 36,000  Level Denver Center
Wed 11:26:29 AM 39.1625 -103.1308 258° West 311 358 36,000  Level Denver Center
Wed 11:27:31 AM 39.1408 -103.2592 258° West 312 359 36,000  Level Denver Center
Wed 11:28:33 AM 39.1233 -103.3694 258° West 314 361 36,000  Level Denver Center
Wed 11:29:35 AM 39.1050 -103.4806 258° West 314 361 36,000  Level Denver Center
Wed 11:30:37 AM 39.0864 -103.5917 258° West 315 362 36,000  Level Denver Center
Wed 11:31:39 AM 39.0681 -103.7039 258° West 318 366 36,000  Level Denver Center
Wed 11:32:41 AM 39.0475 -103.8158 257° West 318 366 36,000  Level Denver Center
Wed 11:33:43 AM 39.0303 -103.9269 259° West 315 362 36,000  Level Denver Center
Wed 11:34:45 AM 39.0106 -104.0372 257° West 315 362 36,000  Level Denver Center
Wed 11:35:47 AM 38.9883 -104.1658 258° West 313 360 36,000  Level Denver Center
Wed 11:36:49 AM 38.9692 -104.2767 257° West 313 360 36,000  Level Denver Center
Wed 11:37:51 AM 38.9500 -104.3861 257° West 312 359 36,000  Level Denver Center
Wed 11:38:53 AM 38.9311 -104.4983 258° West 318 366 36,000  Level Denver Center
Wed 11:39:55 AM 38.9106 -104.6086 257° West 315 362 36,000  Level Denver Center
Wed 11:40:58 AM 38.8911 -104.7197 257° West 316 364 36,000  Level Denver Center
Wed 11:42:00 AM 38.8714 -104.8308 257° West 315 362 36,000  Level Denver Center
Wed 11:43:02 AM 38.8514 -104.9439 257° West 319 367 36,000  Level Denver Center
Wed 11:44:04 AM 38.8269 -105.0761 257° West 323 372 36,000  Level Denver Center
Wed 11:45:06 AM 38.8064 -105.1911 257° West 327 376 36,000  Level Denver Center
Wed 11:46:08 AM 38.7861 -105.3061 257° West 327 376 36,000  Level Denver Center
Wed 11:47:10 AM 38.7642 -105.4222 256° West 330 380 36,000  Level Denver Center
Wed 11:48:12 AM 38.7425 -105.5383 257° West 332 382 36,000  Level Denver Center
Wed 11:49:14 AM 38.7194 -105.6550 256° West 334 384 36,000  Level Denver Center
Wed 11:50:16 AM 38.6986 -105.7703 257° West 330 380 36,000  Level Denver Center
Wed 11:51:18 AM 38.6775 -105.8844 257° West 328 377 36,000  Level Denver Center
Wed 11:52:20 AM 38.6525 -106.0167 256° West 326 375 36,000  Level Denver Center
Wed 11:53:22 AM 38.6300 -106.1289 256° West 323 372 36,000  Level Denver Center
Wed 11:54:24 AM 38.6094 -106.2400 257° West 326 375 36,000  Level Denver Center
Wed 11:55:26 AM 38.5878 -106.3542 256° West 329 379 36,000  Level Denver Center
Wed 11:56:28 AM 38.5653 -106.4661 256° West 325 374 36,000  Level Denver Center
Wed 11:57:30 AM 38.5425 -106.5786 256° West 326 375 36,000  Level Denver Center
Wed 11:58:32 AM 38.5258 -106.6675 257° West 324 373 36,000  Level Denver Center
Wed 11:59:34 AM 38.4989 -106.8036 256° West 326 375 36,000  Level Denver Center
Wed 12:00:36 PM 38.4725 -106.9400 256° West 328 377 36,000  Level Denver Center
Wed 12:01:39 PM 38.4478 -107.0547 255° West 326 375 36,000  Level Denver Center
Wed 12:02:41 PM 38.4117 -107.1611 247° West 333 383 36,000  Level Denver Center
Wed 12:03:43 PM 38.3739 -107.2742 247° West 336 387 36,000  Level Denver Center
Wed 12:04:45 PM 38.3333 -107.3958 247° West 335 386 36,000  Level Denver Center
Wed 12:05:47 PM 38.2989 -107.5008 247° West 335 386 36,000  Level Denver Center
Wed 12:06:49 PM 38.2639 -107.6033 247° West 332 382 36,000  Level Denver Center
Wed 12:07:51 PM 38.2236 -107.7275 248° West 337 388 36,000  Level Denver Center
Wed 12:08:53 PM 38.1878 -107.8317 246° West 336 387 36,000  Level Denver Center
Wed 12:09:55 PM 38.1458 -107.9539 246° West 338 389 36,000  Level Denver Center
Wed 12:10:57 PM 38.1100 -108.0614 247° West 342 394 36,000  Level Denver Center
Wed 12:11:59 PM 38.0675 -108.1878 247° West 345 397 36,000  Level Denver Center
Wed 12:13:01 PM 38.0317 -108.2944 247° West 346 398 36,000  Level Denver Center
Wed 12:14:03 PM 37.9881 -108.4169 246° West 344 396 36,000  Level Denver Center
Wed 12:15:05 PM 37.9519 -108.5225 247° West 343 395 36,000  Level Denver Center
Wed 12:16:07 PM 37.9078 -108.6483 246° West 346 398 36,000  Level Denver Center
Wed 12:17:09 PM 37.8708 -108.7550 246° West 348 400 36,000  Level Denver Center
Wed 12:18:11 PM 37.8272 -108.8797 246° West 348 400 36,000  Level Denver Center
Wed 12:19:13 PM 37.7942 -108.9889 249° West 348 400 36,000  Level Denver Center
Wed 12:20:16 PM 37.7625 -109.1194 253° West 349 402 36,000  Level Denver Center
Wed 12:21:18 PM 37.7336 -109.2308 252° West 343 395 36,000  Level Denver Center
Wed 12:22:20 PM 37.7014 -109.3625 253° West 354 407 36,000  Level Denver Center
Wed 12:23:22 PM 37.6733 -109.4750 253° West 352 405 36,000  Level Denver Center
Wed 12:24:24 PM 37.6403 -109.6058 252° West 352 405 36,000 -435 Level Denver Center
Wed 12:25:26 PM 37.6117 -109.7192 252° West 354 407 35,100 -871 Descending Denver Center
Wed 12:26:28 PM 37.5833 -109.8328 253° West 355 409 34,200 -351 Descending Denver Center
Wed 12:28:34 PM 37.5164 -110.0894 252° West 357 411 34,000 -64 Descending Los Angeles Center
Wed 12:29:36 PM 37.4842 -110.2069 251° West 356 410 34,000  Level Los Angeles Center
Wed 12:30:38 PM 37.4539 -110.3281 253° West 361 415 34,000  Level Los Angeles Center
Wed 12:31:38 PM 37.4244 -110.4464 253° West 360 414 34,000  Level Denver Center
Wed 12:32:40 PM 37.3858 -110.5939 252° West 369 425 34,000  Level Denver Center
Wed 12:33:42 PM 37.3544 -110.7153 252° West 367 422 34,000 -242 Level Denver Center
Wed 12:34:44 PM 37.3219 -110.8367 251° West 368 423 33,500 -726 Descending Denver Center
Wed 12:35:46 PM 37.2900 -110.9575 252° West 365 420 32,500 -726 Descending Denver Center
Wed 12:36:48 PM 37.2572 -111.0814 252° West 371 427 32,000 -242 Descending Denver Center
Wed 12:37:50 PM 37.2244 -111.2047 252° West 374 430 32,000  Level Denver Center
Wed 12:38:52 PM 37.1911 -111.3278 251° West 374 430 32,000  Level Denver Center
Wed 12:39:54 PM 37.1497 -111.4769 251° West 378 435 32,000  Level Denver Center
Wed 12:40:57 PM 37.1175 -111.6008 252° West 375 432 32,000  Level Denver Center
Wed 12:41:59 PM 37.0833 -111.7247 251° West 376 433 32,000  Level Denver Center
Wed 12:43:01 PM 37.0489 -111.8506 251° West 380 437 32,000 -48 Level Denver Center
Wed 12:44:03 PM 37.0142 -111.9758 251° West 380 437 31,900 -532 Descending Denver Center
Wed 12:45:05 PM 36.9789 -112.1017 251° West 382 440 30,900 -1,016 Descending Denver Center
Wed 12:46:07 PM 36.9364 -112.2553 251° West 387 445 29,800 -1,056 Descending Denver Center
Wed 12:47:10 PM 36.9025 -112.3769 251° West 375 432 28,700 -968 Descending Los Angeles Center
Wed 12:48:11 PM 36.8811 -112.4725 254° West 364 419 27,800 -1,016 Descending Los Angeles Center
Wed 12:49:14 PM 36.8731 -112.6208 266° West 356 410 26,600 -1,056 Descending Los Angeles Center
Wed 12:50:16 PM 36.8672 -112.7419 267° West 350 403 25,600 -968 Descending Los Angeles Center
Wed 12:51:18 PM 36.8611 -112.8603 266° West 344 396 24,600 -1,113 Descending Los Angeles Center
Wed 12:52:20 PM 36.8519 -113.0003 265° West 339 390 23,300 -1,500 Descending Los Angeles Center
Wed 12:53:22 PM 36.8400 -113.1156 263° West 336 387 21,500 -1,392 Descending Los Angeles Center
Wed 12:54:25 PM 36.8025 -113.2247 247° West 340 391 20,400 -1,008 Descending Los Angeles Center
Wed 12:55:27 PM 36.7672 -113.3364 249° West 344 396 19,400 -968 Descending Los Angeles Center
Wed 12:56:29 PM 36.7317 -113.4461 248° West 343 395 18,400 -968 Descending Los Angeles Center
Wed 12:57:31 PM 36.6975 -113.5539 248° West 337 388 17,400 -1,065 Descending Los Angeles Center
Wed 12:58:33 PM 36.6556 -113.6822 248° West 334 384 16,200 -1,065 Descending Los Angeles Center
Wed 12:59:35 PM 36.6211 -113.7892 248° West 333 383 15,200 -968 Descending Los Angeles Center
Wed 01:00:37 PM 36.5858 -113.8967 248° West 336 387 14,200 -871 Descending Los Angeles Center
Wed 01:01:39 PM 36.5578 -113.9828 248° West 335 386 13,400 -971 Descending Los Angeles Center
Wed 01:02:22 PM 36.5222 -114.0958 249° West 339 390 12,500 -1,054 Descending Los Angeles Center
Wed 01:02:53 PM 36.5022 -114.1508 246° West 342 394 12,100 -293 Descending Los Angeles Center
Wed 01:03:44 PM 36.4756 -114.2344 248° West 338 389 12,100  Level Los Angeles Center
Wed 01:04:46 PM 36.4408 -114.3411 248° West 334 384 12,100 -72 Level Los Angeles Center
Wed 01:05:07 PM 36.4289 -114.3850 251° West 331 381 12,000 -97 Descending Los Angeles Center
Wed 01:05:48 PM 36.4075 -114.4406 244° Southwest 317 365 12,000  Level Los Angeles Center
Wed 01:06:49 PM 36.3628 -114.4939 224° Southwest 295 339 12,000 -823 Level Los Angeles Center
Wed 01:07:52 PM 36.3103 -114.5997 238° Southwest 298 343 10,300 -1,630 Descending Los Angeles Center
Wed 01:08:10 PM 36.2917 -114.6431 242° Southwest 299 344 9,800 -1,161 Descending Los Angeles Center
Wed 01:08:54 PM 36.2589 -114.7036 236° Southwest 294 338 9,100 -984 Descending Los Angeles Center
Wed 01:09:11 PM 36.2494 -114.7267 243° Southwest 288 331 8,800 -774 Descending Los Angeles Center
Wed 01:09:56 PM 36.2175 -114.7853 236° Southwest 283 326 8,300 -393 Descending Los Angeles Center
Wed 01:10:12 PM 36.2053 -114.8108 239° Southwest 276 318 8,400 -387 Climbing Los Angeles Center
Wed 01:10:58 PM 36.1803 -114.8611 238° Southwest 266 306 7,900 -968 Descending Los Angeles Center
Wed 01:11:14 PM 36.1697 -114.8842 240° Southwest 247 284 7,400 -1,355 Descending Los Angeles Center
Wed 01:12:00 PM 36.1450 -114.9314 237° Southwest 248 285 6,500 -1,156 Descending Los Angeles Center
Wed 01:13:03 PM 36.1350 -114.9981 259° West 211 243 5,300 -1,152 Descending Los Angeles Center
Wed 01:14:05 PM 36.1392 -115.0583 275° West 189 217 4,100 -1,065 Descending Los Angeles Center
Wed 01:15:07 PM 36.1331 -115.1264 264° West 174 200 3,100 -871 Descending Los Angeles Center
Wed 01:16:09 PM 36.1047 -115.1528 217° Southwest 167 192 2,300 -774 Descending Los Angeles Center
Wed 01:18:00 PM 36.0801 -115.1523 219° Southwest  Level Estimated

Login

Don't have an account? Register now (free) for customized features, flight alerts, and more!